Time;durP1;ratioP1;P1;durP2;ratioP2;P2;SDS_P1;SDS_P2;PMS_P1;PMS_P2;Temp;Humidity;BMP_temperature;BMP_pressure;BME280_temperature;BME280_humidity;BME280_pressure;Samples;Min_cycle;Max_cycle;Signal;HPM_P1;HPM_P2
2023/07/04 06:49:12;;;;;;;;;7.00;5.75;;;;;19.05;48.85;101208.50;5098065;23;45457;-87
2023/07/04 06:51:37;;;;;;;;;5.75;5.25;;;;;19.05;48.91;101204.09;4928375;28;46119;-88
2023/07/04 06:54:02;;;;;;;;;6.00;6.00;;;;;19.07;48.89;101210.09;4918575;28;45229;-87
2023/07/04 06:56:28;;;;;;;;;6.75;6.00;;;;;18.95;48.71;101195.91;4903113;28;45495;-87
2023/07/04 06:58:55;;;;;;;;;6.75;6.00;;;;;19.05;49.45;101200.59;4898239;28;45564;-87
2023/07/04 07:01:23;;;;;;;;;9.25;7.75;;;;;19.21;49.11;101227.69;4910716;28;45590;-88
2023/07/04 07:03:49;;;;;;;;;6.75;6.25;;;;;19.19;48.66;101216.38;4912947;28;45508;-88
2023/07/04 07:06:17;;;;;;;;;7.00;6.25;;;;;19.28;49.18;101228.13;4904990;28;45773;-83
2023/07/04 07:08:46;;;;;;;;;5.75;5.50;;;;;19.30;49.14;101228.03;4899419;29;45307;-83
2023/07/04 07:11:19;;;;;;;;;6.00;5.50;;;;;19.31;48.64;101219.16;4899283;28;45455;-82
2023/07/04 07:13:46;;;;;;;;;9.25;6.50;;;;;19.31;48.72;101205.97;4903877;28;45592;-85
2023/07/04 07:16:16;;;;;;;;;7.75;7.00;;;;;19.63;48.65;101247.88;4916783;28;46104;-85
2023/07/04 07:18:43;;;;;;;;;7.50;6.25;;;;;19.66;48.08;101231.00;4929489;28;45473;-85
2023/07/04 07:21:10;;;;;;;;;6.00;5.00;;;;;19.66;47.82;101231.00;4899422;29;45305;-85
2023/07/04 07:23:40;;;;;;;;;9.00;6.00;;;;;19.74;48.03;101236.59;4908750;28;45371;-85
2023/07/04 07:26:08;;;;;;;;;6.25;5.75;;;;;19.76;47.78;101226.75;4918089;28;46477;-85
2023/07/04 07:28:38;;;;;;;;;5.75;5.75;;;;;19.93;48.09;101243.25;4912630;28;45682;-85
2023/07/04 07:31:10;;;;;;;;;6.00;5.00;;;;;19.93;47.63;101224.75;4917574;28;45432;-85
2023/07/04 07:33:37;;;;;;;;;6.67;5.33;;;;;20.05;47.54;101237.19;4915191;28;46113;-85
2023/07/04 07:36:14;;;;;;;;;6.67;4.33;;;;;20.14;47.54;101235.72;4914224;28;46377;-85
2023/07/04 07:38:40;;;;;;;;;6.67;6.00;;;;;20.22;47.61;101237.81;4912305;28;45589;-85
2023/07/04 07:41:06;;;;;;;;;6.00;6.00;;;;;20.27;47.57;101233.06;4898937;29;45309;-85
2023/07/04 07:44:00;;;;;;;;;4.67;3.33;;;;;20.37;47.12;101234.09;4899530;29;45638;-85
2023/07/04 07:46:37;;;;;;;;;7.33;6.00;;;;;20.43;47.17;101246.88;4896537;28;45316;-92
2023/07/04 07:49:03;;;;;;;;;8.00;5.00;;;;;20.51;46.81;101241.06;4890161;23;45560;-86
2023/07/04 07:51:28;;;;;;;;;8.00;6.00;;;;;20.59;46.98;101235.22;4858496;29;45519;-85
2023/07/04 07:53:55;;;;;;;;;6.00;4.00;;;;;20.69;46.32;101235.44;4858019;29;45440;-86
2023/07/04 07:56:24;;;;;;;;;6.00;4.00;;;;;20.72;46.02;101237.84;4859804;29;45344;-86
2023/07/04 07:58:49;;;;;;;;;6.00;5.00;;;;;20.75;45.87;101228.84;4861262;29;45365;-87
2023/07/04 08:01:29;;;;;;;;;6.00;6.00;;;;;20.82;45.72;101225.66;4860964;29;45569;-85
2023/07/04 08:03:55;;;;;;;;;6.33;5.00;;;;;20.86;45.97;101225.47;4857291;29;45371;-86
2023/07/04 08:06:23;;;;;;;;;6.67;5.00;;;;;20.92;46.13;101219.75;4864313;29;45551;-86
2023/07/04 08:08:49;;;;;;;;;6.33;5.67;;;;;20.98;45.83;101219.31;4861279;29;45483;-85
2023/07/04 08:11:15;;;;;;;;;5.00;5.00;;;;;21.06;45.81;101224.03;4876192;29;46224;-86
2023/07/04 08:14:15;;;;;;;;;7.67;5.33;;;;;21.15;45.42;101218.06;4864908;29;45430;-95
2023/07/04 08:16:47;;;;;;;;;6.33;4.67;;;;;21.17;44.72;101207.34;4867574;29;45566;-93
2023/07/04 08:19:13;;;;;;;;;6.33;6.00;;;;;21.19;44.35;101203.63;4866131;29;45593;-93
2023/07/04 08:28:23;;;;;;;;;9.67;6.00;;;;;21.40;44.17;101204.81;4864528;29;45565;-92
2023/07/04 08:30:49;;;;;;;;;6.67;4.33;;;;;21.44;43.74;101203.63;4862726;29;45457;-93
2023/07/04 08:33:17;;;;;;;;;7.00;5.67;;;;;21.50;43.48;101197.88;4863559;29;45487;-93
2023/07/04 08:36:00;;;;;;;;;7.67;7.00;;;;;21.55;43.32;101206.31;4864098;29;45482;-92
2023/07/04 08:38:26;;;;;;;;;9.67;6.33;;;;;21.62;43.47;101207.53;4879005;29;47665;-92
2023/07/04 08:40:52;;;;;;;;;6.33;4.33;;;;;21.70;43.15;101200.81;4858994;29;45492;-92
2023/07/04 08:43:40;;;;;;;;;4.00;4.00;;;;;21.76;43.74;101190.59;4868692;29;45374;-92
2023/07/04 08:46:09;;;;;;;;;5.67;5.33;;;;;21.88;43.25;101201.22;4862531;29;45298;-93
2023/07/04 08:48:35;;;;;;;;;4.00;4.00;;;;;21.96;42.65;101195.34;4864514;29;45464;-92
2023/07/04 08:51:03;;;;;;;;;5.67;4.00;;;;;22.05;42.85;101193.78;4863063;29;45564;-91
2023/07/04 08:53:30;;;;;;;;;5.00;4.00;;;;;22.12;42.06;101197.66;4862614;29;45541;-92
2023/07/04 08:56:05;;;;;;;;;4.00;4.00;;;;;22.18;42.02;101198.97;4876684;29;45215;-92
2023/07/04 08:58:40;;;;;;;;;8.00;6.00;;;;;22.25;42.27;101189.56;4862872;29;48066;-93
2023/07/04 09:01:14;;;;;;;;;8.00;6.00;;;;;22.34;43.02;101177.38;4862087;29;45340;-93
2023/07/04 09:04:00;;;;;;;;;6.00;6.00;;;;;22.48;42.80;101181.59;4863899;29;45291;-93
2023/07/04 09:06:46;;;;;;;;;7.33;5.67;;;;;22.61;42.96;101177.03;4857139;29;45369;-92
2023/07/04 09:09:31;;;;;;;;;7.00;6.00;;;;;22.75;41.88;101181.22;4862522;29;47012;-93
2023/07/04 09:11:57;;;;;;;;;4.33;4.00;;;;;22.80;41.78;101175.53;4860728;29;45527;-96
2023/07/04 09:14:32;;;;;;;;;6.33;5.00;;;;;22.82;41.56;101177.09;4861696;29;44870;-96
2023/07/04 09:17:04;;;;;;;;;8.00;6.00;;;;;22.89;41.60;101189.84;4852487;29;45404;-96
2023/07/04 09:19:36;;;;;;;;;5.00;5.00;;;;;22.98;41.73;101197.06;4876943;29;45644;-96
2023/07/04 09:22:06;;;;;;;;;7.33;5.67;;;;;23.08;41.55;101182.09;4878014;29;45335;-94
2023/07/04 09:24:31;;;;;;;;;4.67;3.33;;;;;23.21;41.20;101178.41;4862538;29;45492;-94
2023/07/04 09:26:58;;;;;;;;;5.00;5.00;;;;;23.28;41.16;101174.25;4858624;29;45661;-96
2023/07/04 09:29:25;;;;;;;;;6.00;5.00;;;;;23.30;40.97;101171.47;4865847;29;48633;-96
2023/07/04 09:32:00;;;;;;;;;5.33;4.67;;;;;23.36;40.78;101181.63;4858273;29;45494;-95
2023/07/04 09:34:38;;;;;;;;;5.67;3.67;;;;;23.41;40.62;101175.94;4860282;29;45315;-96
2023/07/04 09:37:26;;;;;;;;;5.67;5.67;;;;;23.54;40.83;101162.44;4866516;29;45369;-96
2023/07/04 09:39:54;;;;;;;;;9.00;5.00;;;;;23.64;40.40;101167.84;4863853;29;47944;-96
2023/07/04 09:42:30;;;;;;;;;5.67;5.00;;;;;23.69;40.04;101155.00;4864194;29;45465;-96
2023/07/04 09:44:56;;;;;;;;;6.33;5.00;;;;;23.80;40.01;101146.94;4869820;29;45439;-96
2023/07/04 09:47:26;;;;;;;;;7.67;4.67;;;;;23.92;40.41;101153.00;4885477;29;44940;-96
2023/07/04 09:50:14;;;;;;;;;7.00;3.33;;;;;24.13;40.41;101155.66;4866384;29;47026;-96
2023/07/04 09:52:41;;;;;;;;;5.67;5.67;;;;;24.28;40.36;101152.59;4869032;29;45427;-96
2023/07/04 09:55:23;;;;;;;;;7.00;5.00;;;;;24.42;39.86;101146.91;4887375;29;45320;-96
2023/07/04 09:57:49;;;;;;;;;5.33;4.00;;;;;24.55;39.37;101153.81;4887236;29;45467;-96
2023/07/04 10:00:19;;;;;;;;;7.33;4.67;;;;;24.57;39.07;101156.34;4870778;29;46945;-96
2023/07/04 10:03:08;;;;;;;;;4.00;3.67;;;;;24.56;38.91;101160.81;4870878;29;45299;-96
2023/07/04 10:05:35;;;;;;;;;4.33;4.33;;;;;24.57;38.48;101154.50;4877675;29;45356;-96
2023/07/04 10:08:15;;;;;;;;;4.33;3.00;;;;;24.66;38.82;101147.50;4856025;29;45507;-96
2023/07/04 10:10:53;;;;;;;;;7.00;4.00;;;;;24.74;38.98;101144.16;4863873;29;47387;-96
2023/07/04 10:13:25;;;;;;;;;5.00;4.33;;;;;24.82;38.47;101150.50;4871495;29;45371;-96
2023/07/04 10:15:51;;;;;;;;;3.00;3.00;;;;;24.89;37.90;101145.47;4871269;29;45358;-96
2023/07/04 10:18:26;;;;;;;;;6.33;4.67;;;;;25.01;38.26;101145.31;4869269;29;45521;-96
2023/07/04 10:20:55;;;;;;;;;6.67;4.00;;;;;25.17;38.59;101140.25;4853147;29;45679;-96
2023/07/04 10:23:26;;;;;;;;;4.00;4.00;;;;;25.30;38.37;101131.97;4870904;29;45177;-96
2023/07/04 10:26:14;;;;;;;;;5.33;4.67;;;;;25.45;38.21;101134.19;4861424;29;44908;-96
2023/07/04 10:28:41;;;;;;;;;6.00;4.33;;;;;25.57;37.58;101137.56;4850572;29;45496;-96
2023/07/04 10:31:14;;;;;;;;;5.00;5.00;;;;;25.68;37.84;101129.38;4830627;29;47128;-96
2023/07/04 10:33:51;;;;;;;;;5.67;5.00;;;;;25.85;37.60;101129.63;4834251;29;45420;-96
2023/07/04 10:36:25;;;;;;;;;3.00;3.00;;;;;25.99;36.99;101126.47;4840328;29;44875;-96
2023/07/04 10:38:52;;;;;;;;;7.00;5.33;;;;;26.09;37.06;101117.56;4856030;29;44848;-96
2023/07/04 10:41:26;;;;;;;;;5.67;4.67;;;;;26.19;37.41;101121.03;4870373;29;47641;-96
2023/07/04 10:44:01;;;;;;;;;4.00;4.00;;;;;26.30;36.49;101121.84;4855425;29;44884;-96
2023/07/04 10:46:32;;;;;;;;;9.67;5.33;;;;;26.32;36.53;101111.84;4852414;29;45428;-96
2023/07/04 10:49:06;;;;;;;;;6.67;5.67;;;;;26.33;36.77;101122.38;4861011;29;45545;-96
2023/07/04 10:51:40;;;;;;;;;4.67;4.67;;;;;26.35;36.23;101116.91;4855251;29;47143;-96
2023/07/04 10:54:10;;;;;;;;;5.75;4.75;;;;;26.37;36.46;101114.91;4850163;29;45314;-96
2023/07/04 10:56:42;;;;;;;;;5.67;5.00;;;;;26.27;36.32;101105.16;4848720;29;45477;-96
2023/07/04 10:59:14;;;;;;;;;8.00;5.00;;;;;26.19;36.51;101102.34;4851161;29;45354;-96
2023/07/04 11:01:46;;;;;;;;;5.00;4.00;;;;;26.14;36.43;101093.97;4854261;29;48438;-96
2023/07/04 11:04:22;;;;;;;;;6.33;5.67;;;;;26.11;36.51;101091.63;4855449;29;44804;-96
2023/07/04 11:07:05;;;;;;;;;7.67;6.33;;;;;26.12;36.36;101095.94;4856777;29;45565;-96
2023/07/04 11:09:41;;;;;;;;;5.00;3.33;;;;;26.06;36.62;101093.88;4859092;29;44814;-96
2023/07/04 11:12:13;;;;;;;;;5.00;4.33;;;;;26.06;36.58;101088.56;4850389;29;47587;-96
2023/07/04 11:14:43;;;;;;;;;6.67;6.00;;;;;26.06;36.27;101084.03;4851779;29;45395;-96
2023/07/04 11:17:13;;;;;;;;;5.00;4.33;;;;;26.09;36.73;101094.41;4867684;29;44805;-96
2023/07/04 11:20:13;;;;;;;;;6.00;5.00;;;;;26.06;36.91;101085.88;4864694;29;45357;-96
2023/07/04 11:22:51;;;;;;;;;6.00;5.00;;;;;26.04;36.56;101080.69;4869882;29;47210;-96
2023/07/04 11:25:42;;;;;;;;;7.00;4.33;;;;;26.01;36.47;101081.81;4871004;29;45558;-96
2023/07/04 11:28:27;;;;;;;;;7.33;7.00;;;;;26.05;37.13;101071.69;4854900;29;44832;-96
2023/07/04 11:31:12;;;;;;;;;5.00;5.00;;;;;26.09;36.83;101062.44;4866349;29;45378;-96
2023/07/04 11:34:04;;;;;;;;;4.00;4.00;;;;;26.18;37.23;101065.16;4837599;29;47528;-96
2023/07/04 11:36:44;;;;;;;;;6.33;6.33;;;;;26.31;36.35;101067.50;4883740;29;45281;-96
2023/07/04 11:39:28;;;;;;;;;6.33;6.33;;;;;26.35;36.34;101052.88;4869772;29;44815;-96
2023/07/04 11:41:55;;;;;;;;;5.00;5.00;;;;;26.44;37.07;101043.97;4868447;29;44904;-96
2023/07/04 11:44:32;;;;;;;;;5.67;5.33;;;;;26.50;36.62;101039.84;4869622;29;47060;-96
2023/07/04 11:47:07;;;;;;;;;5.67;5.67;;;;;26.55;36.01;101040.22;4866112;29;45296;-96
2023/07/04 11:49:34;;;;;;;;;6.33;6.33;;;;;26.59;36.37;101030.06;4870967;29;45456;-96
2023/07/04 11:52:27;;;;;;;;;7.33;4.67;;;;;26.71;36.83;101033.34;4877324;29;45065;-96
2023/07/04 11:55:13;;;;;;;;;7.00;6.00;;;;;26.79;36.32;101028.06;4893732;29;47289;-96
2023/07/04 11:57:59;;;;;;;;;6.00;5.00;;;;;26.92;35.63;101023.19;4888761;29;45617;-96
2023/07/04 12:00:40;;;;;;;;;9.67;5.00;;;;;27.01;35.83;101026.75;4895344;29;45395;-96
2023/07/04 12:03:17;;;;;;;;;7.33;5.33;;;;;27.04;35.33;101021.09;4891440;29;45398;-96
2023/07/04 12:05:55;;;;;;;;;7.33;4.67;;;;;27.06;34.75;101013.78;4893718;29;47211;-96
2023/07/04 12:08:44;;;;;;;;;7.33;6.33;;;;;27.17;35.44;101007.31;4883798;29;45804;-96
2023/07/04 12:11:26;;;;;;;;;6.00;6.00;;;;;27.25;35.42;101003.84;4888757;29;45379;-96
2023/07/04 12:13:53;;;;;;;;;6.33;5.67;;;;;27.27;35.06;101020.56;4876011;29;44777;-96
2023/07/04 12:16:21;;;;;;;;;6.00;5.33;;;;;27.29;35.26;101023.91;4875134;29;47190;-96
2023/07/04 12:18:47;;;;;;;;;7.00;6.67;;;;;27.30;35.04;101022.91;4869158;29;45312;-96
2023/07/04 12:21:19;;;;;;;;;6.67;6.00;;;;;27.25;35.35;101017.22;4870076;29;45346;-96
2023/07/04 12:23:46;;;;;;;;;7.00;7.00;;;;;27.15;34.69;101006.66;4890224;29;45638;-96
2023/07/04 12:26:22;;;;;;;;;5.67;5.33;;;;;27.05;34.91;101012.09;4887736;29;46894;-96
2023/07/04 12:28:47;;;;;;;;;9.67;6.00;;;;;26.92;35.20;101015.19;4887590;29;45335;-96
2023/07/04 12:31:17;;;;;;;;;4.00;4.00;;;;;26.74;34.13;101004.50;4887976;29;45308;-96
2023/07/04 12:33:45;;;;;;;;;8.67;8.00;;;;;26.57;34.74;101010.72;4890943;29;45537;-95
2023/07/04 12:36:15;;;;;;;;;6.33;6.00;;;;;26.45;34.35;101018.97;4889600;29;48137;-96
2023/07/04 12:38:46;;;;;;;;;7.67;6.00;;;;;26.29;34.43;101003.66;4888998;29;45394;-96
2023/07/04 12:41:26;;;;;;;;;9.67;7.67;;;;;26.15;34.73;101005.81;4892252;29;44705;-96
2023/07/04 12:44:04;;;;;;;;;5.67;5.67;;;;;26.09;34.66;101008.25;4891580;29;45382;-96
2023/07/04 12:46:31;;;;;;;;;5.67;5.00;;;;;26.03;34.80;101015.03;4890948;29;47108;-96
2023/07/04 12:48:59;;;;;;;;;8.00;6.00;;;;;25.93;34.59;101015.09;4885615;29;44842;-96
2023/07/04 12:51:30;;;;;;;;;5.33;4.33;;;;;25.85;34.05;101013.19;4885028;29;45355;-96
2023/07/04 12:53:59;;;;;;;;;3.00;3.00;;;;;25.73;34.72;101009.88;4867503;29;45707;-96
2023/07/04 12:56:27;;;;;;;;;3.67;3.67;;;;;25.68;34.52;101006.81;4882443;29;45743;-96
2023/07/04 12:58:53;;;;;;;;;4.33;3.67;;;;;25.65;33.88;101014.28;4867904;29;45884;-96
2023/07/04 13:01:32;;;;;;;;;6.00;5.00;;;;;25.56;33.75;101016.84;4867468;29;45350;-96
2023/07/04 13:04:00;;;;;;;;;4.00;4.00;;;;;25.52;34.76;101017.25;4867736;29;44765;-96
2023/07/04 13:06:28;;;;;;;;;6.00;2.67;;;;;25.44;34.86;101029.47;4882253;29;48175;-96
2023/07/04 13:08:55;;;;;;;;;6.00;3.00;;;;;25.28;35.78;101038.09;4866723;29;45254;-96
2023/07/04 13:11:22;;;;;;;;;5.00;3.33;;;;;25.11;36.03;101045.00;4866225;29;45402;-96
2023/07/04 13:13:49;;;;;;;;;4.67;3.67;;;;;24.88;36.36;101041.81;4867639;29;45592;-96
2023/07/04 13:16:21;;;;;;;;;5.67;3.33;;;;;24.71;36.49;101046.00;4867804;29;47257;-96
2023/07/04 13:18:47;;;;;;;;;3.00;2.00;;;;;24.51;36.91;101051.31;4866238;29;45338;-96
2023/07/04 13:21:38;;;;;;;;;6.67;3.00;;;;;24.35;37.63;101043.91;4884899;29;44819;-96
2023/07/04 13:24:09;;;;;;;;;3.67;2.33;;;;;24.22;38.30;101057.44;4868723;29;45376;-96
2023/07/04 13:26:37;;;;;;;;;2.00;1.00;;;;;24.04;38.81;101047.44;4869191;29;47419;-96
2023/07/04 13:29:20;;;;;;;;;5.00;3.33;;;;;23.83;40.03;101056.34;4875991;29;44785;-96
2023/07/04 13:31:46;;;;;;;;;3.00;3.00;;;;;23.67;40.37;101051.53;4875221;29;44819;-96
2023/07/04 13:34:30;;;;;;;;;4.00;2.00;;;;;23.56;41.07;101063.06;4860827;29;44898;-96
2023/07/04 13:37:01;;;;;;;;;3.67;2.33;;;;;23.44;41.45;101061.47;4868893;29;47218;-96
2023/07/04 13:39:29;;;;;;;;;3.00;2.67;;;;;23.28;41.92;101049.47;4870466;29;44778;-96
2023/07/04 13:41:58;;;;;;;;;3.33;2.33;;;;;23.13;42.55;101061.44;4874499;29;44794;-96
2023/07/04 13:44:24;;;;;;;;;6.00;5.00;;;;;22.93;42.98;101051.53;4891228;29;44926;-96
2023/07/04 13:46:53;;;;;;;;;5.00;3.67;;;;;22.78;43.28;101048.31;4884358;29;47646;-96
2023/07/04 13:49:24;;;;;;;;;4.00;4.00;;;;;22.70;44.10;101045.47;4886531;29;45437;-96
2023/07/04 13:52:12;;;;;;;;;4.67;4.33;;;;;22.56;44.18;101041.31;4840123;29;45347;-96
2023/07/04 13:54:38;;;;;;;;;4.33;3.33;;;;;22.45;44.13;101050.09;4834226;29;45004;-96
2023/07/04 13:57:03;;;;;;;;;2.67;2.67;;;;;22.33;44.48;101045.81;4833025;29;47401;-96
